createdAt,value
2022-07-29T00:01:43.565Z,2.20
2022-07-29T00:04:12.514Z,2.20
2022-07-29T00:06:41.639Z,2.08
2022-07-29T00:09:09.643Z,2.05
2022-07-29T00:11:37.902Z,2.15
2022-07-29T00:14:06.036Z,2.55
2022-07-29T00:16:33.999Z,1.98
2022-07-29T00:19:05.344Z,2.08
2022-07-29T00:21:35.920Z,2.50
2022-07-29T00:24:04.436Z,1.90
2022-07-29T00:26:33.855Z,1.73
2022-07-29T00:29:32.488Z,2.12
2022-07-29T00:31:52.238Z,2.42
2022-07-29T00:34:39.058Z,1.80
2022-07-29T00:37:07.841Z,1.75
2022-07-29T00:39:36.016Z,2.47
2022-07-29T00:42:06.128Z,1.92
2022-07-29T00:44:39.360Z,2.30
2022-07-29T00:49:36.418Z,1.60
2022-07-29T00:52:05.946Z,2.28
2022-07-29T00:54:34.787Z,2.10
2022-07-29T00:57:03.442Z,2.15
2022-07-29T00:59:35.436Z,1.80
2022-07-29T01:02:04.933Z,2.00
2022-07-29T01:04:33.428Z,2.20
2022-07-29T01:07:04.718Z,2.15
2022-07-29T01:09:45.367Z,1.87
2022-07-29T01:12:18.739Z,1.85
2022-07-29T01:14:49.451Z,1.97
2022-07-29T01:17:56.573Z,1.80
2022-07-29T01:20:46.401Z,2.12
2022-07-29T01:23:36.054Z,2.67
2022-07-29T01:26:06.845Z,2.17
2022-07-29T01:28:56.873Z,2.70
2022-07-29T01:31:40.287Z,2.60
2022-07-29T01:34:45.585Z,1.90
2022-07-29T01:37:28.809Z,2.10
2022-07-29T01:39:59.891Z,2.55
2022-07-29T01:42:46.789Z,2.30
2022-07-29T01:45:27.941Z,2.22
2022-07-29T01:47:59.553Z,1.67
2022-07-29T01:50:37.477Z,1.92
2022-07-29T01:53:10.196Z,2.22
2022-07-29T01:55:45.769Z,2.03
2022-07-29T01:58:19.036Z,2.30
2022-07-29T02:00:49.803Z,2.53
2022-07-29T02:03:20.247Z,2.40
2022-07-29T02:05:50.888Z,2.15
2022-07-29T02:08:21.233Z,2.45
2022-07-29T02:10:51.261Z,2.67
2022-07-29T02:13:22.861Z,2.03
2022-07-29T02:15:53.392Z,2.55
2022-07-29T02:18:25.491Z,2.60
2022-07-29T02:20:58.274Z,2.50
2022-07-29T02:23:27.772Z,2.70
2022-07-29T02:25:58.021Z,2.22
2022-07-29T02:28:31.347Z,2.60
2022-07-29T02:31:03.585Z,2.50
2022-07-29T02:33:33.163Z,2.30
2022-07-29T02:36:03.116Z,2.90
2022-07-29T02:38:51.819Z,2.70
2022-07-29T02:41:30.639Z,2.72
2022-07-29T02:44:06.642Z,2.53
2022-07-29T02:46:37.376Z,2.95
2022-07-29T02:49:40.938Z,2.70
2022-07-29T02:52:31.048Z,3.30
2022-07-29T02:55:27.879Z,2.58
2022-07-29T02:58:05.005Z,2.70
2022-07-29T03:00:39.496Z,2.33
2022-07-29T03:03:13.794Z,2.50
2022-07-29T03:05:42.670Z,2.12
2022-07-29T03:08:16.273Z,1.70
2022-07-29T03:10:46.950Z,2.20
2022-07-29T03:13:16.003Z,2.33
2022-07-29T03:15:46.232Z,2.12
2022-07-29T03:18:15.777Z,2.80
2022-07-29T03:20:44.776Z,2.00
2022-07-29T03:23:12.835Z,1.95
2022-07-29T03:25:40.809Z,1.90
2022-07-29T03:28:10.073Z,1.77
2022-07-29T03:30:38.045Z,1.65
2022-07-29T03:33:13.284Z,1.67
2022-07-29T03:35:42.571Z,1.90
2022-07-29T03:38:10.504Z,1.60
2022-07-29T03:40:50.014Z,1.85
2022-07-29T03:43:20.023Z,2.15
2022-07-29T03:45:51.700Z,1.85
2022-07-29T03:48:23.801Z,1.67
2022-07-29T03:50:52.485Z,1.87
2022-07-29T03:53:20.772Z,1.60
2022-07-29T03:55:53.997Z,1.92
2022-07-29T03:58:23.860Z,1.10
2022-07-29T04:00:52.332Z,1.90
2022-07-29T04:03:21.097Z,2.00
2022-07-29T04:06:07.640Z,1.67
2022-07-29T04:08:54.431Z,2.05
2022-07-29T04:11:22.419Z,1.67
2022-07-29T04:13:50.756Z,2.10
2022-07-29T04:16:18.727Z,1.55
2022-07-29T04:18:46.599Z,1.80
2022-07-29T04:21:14.966Z,1.80
2022-07-29T04:23:53.102Z,1.62
2022-07-29T04:26:22.334Z,1.92
2022-07-29T04:28:50.446Z,1.50
2022-07-29T04:31:22.424Z,2.03
2022-07-29T04:33:53.903Z,1.35
2022-07-29T04:36:29.057Z,1.37
2022-07-29T04:38:58.221Z,1.73
2022-07-29T04:41:30.840Z,2.03
2022-07-29T04:44:12.373Z,1.60
2022-07-29T04:46:40.536Z,2.28
2022-07-29T04:51:54.309Z,1.67
2022-07-29T04:54:22.636Z,1.65
2022-07-29T04:56:50.173Z,1.73
2022-07-29T04:59:18.034Z,2.40
2022-07-29T05:02:04.677Z,1.90
2022-07-29T05:04:32.618Z,2.08
2022-07-29T05:07:00.923Z,1.80
2022-07-29T05:09:28.956Z,2.10
2022-07-29T05:11:56.818Z,1.77
2022-07-29T05:14:25.359Z,2.20
2022-07-29T05:16:54.286Z,2.17
2022-07-29T05:19:22.165Z,1.45
2022-07-29T05:21:51.198Z,1.42
2022-07-29T05:24:19.666Z,1.17
2022-07-29T05:26:47.908Z,1.10
2022-07-29T05:29:43.006Z,1.25
2022-07-29T05:32:05.176Z,1.30
2022-07-29T05:34:33.687Z,1.73
2022-07-29T05:37:03.889Z,1.27
2022-07-29T05:39:48.570Z,1.45
2022-07-29T05:42:19.005Z,1.65
2022-07-29T05:44:46.916Z,1.70
2022-07-29T05:47:14.983Z,1.83
2022-07-29T05:49:43.233Z,1.42
2022-07-29T05:52:11.194Z,1.37
2022-07-29T05:54:39.088Z,1.17
2022-07-29T05:57:07.468Z,1.95
2022-07-29T05:59:38.883Z,1.15
2022-07-29T06:02:07.407Z,1.50
2022-07-29T06:04:35.877Z,1.20
2022-07-29T06:07:03.898Z,1.10
2022-07-29T06:09:32.060Z,1.40
2022-07-29T06:12:00.314Z,1.30
2022-07-29T06:14:29.584Z,1.00
2022-07-29T06:16:57.809Z,0.93
2022-07-29T06:19:26.141Z,1.23
2022-07-29T06:21:54.045Z,1.27
2022-07-29T06:24:21.924Z,1.40
2022-07-29T06:26:50.216Z,1.30
2022-07-29T06:29:18.428Z,1.17
2022-07-29T06:31:46.355Z,1.08
2022-07-29T06:34:14.817Z,1.52
2022-07-29T06:36:43.158Z,1.12
2022-07-29T06:39:11.668Z,1.25
2022-07-29T06:41:40.694Z,1.40
2022-07-29T06:44:10.714Z,1.70
2022-07-29T06:46:38.805Z,1.37
2022-07-29T06:49:07.225Z,1.20
2022-07-29T06:51:35.263Z,1.20
2022-07-29T06:54:03.839Z,1.20
2022-07-29T06:56:38.559Z,0.85
2022-07-29T06:59:09.670Z,1.58
2022-07-29T07:01:39.347Z,1.30
2022-07-29T07:04:07.681Z,1.20
2022-07-29T07:06:35.884Z,1.40
2022-07-29T07:09:04.800Z,1.40
2022-07-29T07:11:32.767Z,1.17
2022-07-29T07:14:03.368Z,1.25
2022-07-29T07:16:33.221Z,1.10
2022-07-29T07:19:01.669Z,1.48
2022-07-29T07:21:30.618Z,1.90
2022-07-29T07:24:00.274Z,1.20
2022-07-29T07:26:28.815Z,1.50
2022-07-29T07:28:56.815Z,1.40
2022-07-29T07:31:25.230Z,1.30
2022-07-29T07:33:54.752Z,1.65
2022-07-29T07:36:23.573Z,1.65
2022-07-29T07:38:52.056Z,1.48
2022-07-29T07:41:20.038Z,1.10
2022-07-29T07:43:48.221Z,1.23
2022-07-29T07:46:17.393Z,1.17
2022-07-29T07:48:45.742Z,1.30
2022-07-29T07:51:13.899Z,1.50
2022-07-29T07:53:42.331Z,1.05
2022-07-29T07:56:11.851Z,1.50
2022-07-29T07:58:40.509Z,1.10
2022-07-29T08:01:10.311Z,1.37
2022-07-29T08:03:39.224Z,1.20
2022-07-29T08:06:07.534Z,1.52
2022-07-29T08:08:35.620Z,0.98
2022-07-29T08:11:09.203Z,1.35
2022-07-29T08:13:39.113Z,1.48
2022-07-29T08:16:14.502Z,0.98
2022-07-29T08:18:44.263Z,1.55
2022-07-29T08:21:15.161Z,1.73
2022-07-29T08:26:37.439Z,1.70
2022-07-29T08:29:05.360Z,1.40
2022-07-29T08:31:33.332Z,1.67
2022-07-29T08:34:01.711Z,1.20
2022-07-29T08:36:29.837Z,1.33
2022-07-29T08:38:58.346Z,0.90
2022-07-29T08:41:27.699Z,1.48
2022-07-29T08:43:55.943Z,1.55
2022-07-29T08:46:24.231Z,1.20
2022-07-29T08:48:52.691Z,1.20
2022-07-29T08:51:22.226Z,1.20
2022-07-29T08:53:51.563Z,1.50
2022-07-29T08:56:20.922Z,1.00
2022-07-29T08:58:51.815Z,1.40
2022-07-29T09:04:07.375Z,1.42
2022-07-29T09:06:39.366Z,1.33
2022-07-29T09:09:09.168Z,1.50
2022-07-29T09:11:37.785Z,1.10
2022-07-29T09:14:05.830Z,1.30
2022-07-29T09:16:57.659Z,1.45
2022-07-29T09:22:31.598Z,1.70
2022-07-29T09:24:59.972Z,1.60
2022-07-29T09:27:27.994Z,1.70
2022-07-29T09:30:07.516Z,1.62
2022-07-29T09:32:56.262Z,1.48
2022-07-29T09:35:26.275Z,1.37
2022-07-29T09:37:54.977Z,1.50
2022-07-29T09:40:28.725Z,1.73
2022-07-29T09:43:01.254Z,1.20
2022-07-29T09:45:35.059Z,1.30
2022-07-29T09:48:22.271Z,1.60
2022-07-29T09:50:51.075Z,1.40
2022-07-29T09:53:34.606Z,1.65
2022-07-29T09:56:02.770Z,1.70
2022-07-29T09:58:31.872Z,1.73
2022-07-29T10:01:29.988Z,1.10
2022-07-29T10:03:59.152Z,2.05
2022-07-29T10:07:04.767Z,1.83
2022-07-29T10:09:34.670Z,1.50
2022-07-29T10:12:14.983Z,1.60
2022-07-29T10:14:44.310Z,1.23
2022-07-29T10:17:12.571Z,1.25
2022-07-29T10:19:40.891Z,1.42
2022-07-29T10:22:11.273Z,1.40
2022-07-29T10:24:41.485Z,1.05
2022-07-29T10:27:10.718Z,1.30
2022-07-29T10:29:38.715Z,0.90
2022-07-29T10:32:26.320Z,1.00
2022-07-29T10:35:03.464Z,1.27
2022-07-29T10:38:01.895Z,1.00
2022-07-29T10:41:19.620Z,0.80
2022-07-29T10:43:51.369Z,1.00
2022-07-29T10:46:21.541Z,1.15
2022-07-29T10:49:19.204Z,1.25
2022-07-29T10:54:54.911Z,1.25
2022-07-29T10:57:52.999Z,1.40
2022-07-29T11:00:31.284Z,1.65
2022-07-29T11:03:00.430Z,1.50
2022-07-29T11:05:56.813Z,1.90
2022-07-29T11:08:28.429Z,1.20
2022-07-29T11:11:29.688Z,1.20
2022-07-29T11:13:58.386Z,1.27
2022-07-29T11:16:26.960Z,1.27
2022-07-29T11:19:13.724Z,1.70
2022-07-29T11:21:53.466Z,1.42
2022-07-29T11:24:30.429Z,1.40
2022-07-29T11:27:18.355Z,1.52
2022-07-29T11:29:53.636Z,1.60
2022-07-29T11:32:24.165Z,1.12
2022-07-29T11:38:28.064Z,1.48
2022-07-29T11:41:21.977Z,1.17
2022-07-29T11:43:56.809Z,1.17
2022-07-29T11:46:45.835Z,1.05
2022-07-29T11:49:20.083Z,0.90
2022-07-29T11:51:54.029Z,0.90
2022-07-29T11:54:57.309Z,1.10
2022-07-29T11:57:22.477Z,1.20
2022-07-29T11:59:50.974Z,1.30
2022-07-29T12:02:48.250Z,1.27
2022-07-29T12:05:23.950Z,0.90
2022-07-29T12:07:03.568Z,1.27
2022-07-29T12:08:14.773Z,1.10
2022-07-29T12:10:44.590Z,1.17
2022-07-29T12:13:13.106Z,1.35
2022-07-29T12:15:45.826Z,0.93
2022-07-29T12:18:19.481Z,1.48
2022-07-29T12:21:05.284Z,1.40
2022-07-29T12:23:35.452Z,1.30
2022-07-29T12:26:11.128Z,1.00
2022-07-29T12:28:54.724Z,1.20
2022-07-29T12:31:42.059Z,1.30
2022-07-29T12:34:13.748Z,1.10
2022-07-29T12:36:43.387Z,1.70
2022-07-29T12:39:12.742Z,1.20
2022-07-29T12:41:41.082Z,0.90
2022-07-29T12:44:09.256Z,1.55
2022-07-29T12:46:37.435Z,1.52
2022-07-29T12:49:08.097Z,1.27
2022-07-29T12:51:38.110Z,1.65
2022-07-29T12:54:12.519Z,1.37
2022-07-29T12:56:43.608Z,1.20
2022-07-29T13:01:45.395Z,1.50
2022-07-29T13:04:29.116Z,2.72
2022-07-29T13:07:08.583Z,1.77
2022-07-29T13:10:13.281Z,1.37
2022-07-29T13:13:01.153Z,1.60
2022-07-29T13:15:29.836Z,2.28
2022-07-29T13:17:57.729Z,1.50
2022-07-29T13:20:28.869Z,1.40
2022-07-29T13:23:01.912Z,1.52
2022-07-29T13:25:31.929Z,1.00
2022-07-29T13:28:01.192Z,1.20
2022-07-29T13:30:30.453Z,1.62
2022-07-29T13:32:58.489Z,1.15
2022-07-29T13:35:26.962Z,1.20
2022-07-29T13:37:54.921Z,1.10
2022-07-29T13:40:23.099Z,1.35
2022-07-29T13:42:51.642Z,1.20
2022-07-29T13:45:20.325Z,1.60
2022-07-29T13:47:49.383Z,1.70
2022-07-29T13:50:17.958Z,1.62
2022-07-29T13:52:46.011Z,1.67
2022-07-29T13:55:13.867Z,2.12
2022-07-29T13:57:42.086Z,2.03
2022-07-29T14:00:11.251Z,1.30
2022-07-29T14:02:39.779Z,1.20
2022-07-29T14:05:09.030Z,1.37
2022-07-29T14:07:40.047Z,1.75
2022-07-29T14:10:09.225Z,3.37
2022-07-29T14:12:39.176Z,1.95
2022-07-29T14:15:07.427Z,1.60
2022-07-29T14:17:36.015Z,1.95
2022-07-29T14:20:04.670Z,1.80
2022-07-29T14:22:32.571Z,1.67
2022-07-29T14:25:03.472Z,1.30
2022-07-29T14:27:43.634Z,1.45
2022-07-29T14:30:12.672Z,1.20
2022-07-29T14:32:40.749Z,1.87
2022-07-29T14:35:09.419Z,2.22
2022-07-29T14:37:40.403Z,1.87
2022-07-29T14:40:10.361Z,1.67
2022-07-29T14:42:39.180Z,1.60
2022-07-29T14:45:08.957Z,1.20
2022-07-29T14:47:38.172Z,1.10
2022-07-29T14:50:07.694Z,1.23
2022-07-29T14:52:35.984Z,1.10
2022-07-29T14:55:05.247Z,1.00
2022-07-29T14:57:44.801Z,1.10
2022-07-29T15:00:12.945Z,1.17
2022-07-29T15:03:00.899Z,1.30
2022-07-29T15:05:29.343Z,1.00
2022-07-29T15:07:57.362Z,2.05
2022-07-29T15:10:25.610Z,4.30
2022-07-29T15:12:56.072Z,3.85
2022-07-29T15:15:24.111Z,4.12
2022-07-29T15:17:52.268Z,2.70
2022-07-29T15:20:20.945Z,1.90
2022-07-29T15:22:48.944Z,1.50
2022-07-29T15:25:17.158Z,1.50
2022-07-29T15:27:48.873Z,1.12
2022-07-29T15:30:33.174Z,1.42
2022-07-29T15:33:04.585Z,1.40
2022-07-29T15:35:33.141Z,1.30
2022-07-29T15:38:01.444Z,1.50
2022-07-29T15:40:29.865Z,0.95
2022-07-29T15:42:58.626Z,1.12
2022-07-29T15:45:26.869Z,1.20
2022-07-29T15:48:00.557Z,1.77
2022-07-29T15:50:29.164Z,1.37
2022-07-29T15:52:57.129Z,1.37
2022-07-29T15:55:25.169Z,0.98
2022-07-29T15:57:57.183Z,1.45
2022-07-29T16:00:28.591Z,2.10
2022-07-29T16:02:57.614Z,2.20
2022-07-29T16:05:25.751Z,2.37
2022-07-29T16:07:53.677Z,2.80
2022-07-29T16:10:22.049Z,2.50
2022-07-29T16:12:49.961Z,2.85
2022-07-29T16:15:17.942Z,2.80
2022-07-29T16:17:46.519Z,2.85
2022-07-29T16:20:14.569Z,2.58
2022-07-29T16:22:42.780Z,3.28
2022-07-29T16:25:11.132Z,2.72
2022-07-29T16:27:39.011Z,2.35
2022-07-29T16:30:10.664Z,2.10
2022-07-29T16:32:40.065Z,1.70
2022-07-29T16:35:08.633Z,2.05
2022-07-29T16:37:37.547Z,2.60
2022-07-29T16:40:07.866Z,1.83
2022-07-29T16:42:47.752Z,1.70
2022-07-29T16:45:17.514Z,1.70
2022-07-29T16:48:07.395Z,1.70
2022-07-29T16:50:35.668Z,1.95
2022-07-29T16:53:03.608Z,2.60
2022-07-29T16:55:31.578Z,2.60
2022-07-29T16:58:00.267Z,1.87
2022-07-29T17:00:28.225Z,2.15
2022-07-29T17:02:56.245Z,1.70
2022-07-29T17:05:24.679Z,2.60
2022-07-29T17:07:52.850Z,7.22
2022-07-29T17:10:22.523Z,8.68
2022-07-29T17:12:51.001Z,7.03
2022-07-29T17:15:19.364Z,5.60
2022-07-29T17:17:55.165Z,4.45
2022-07-29T17:20:27.004Z,3.40
2022-07-29T17:22:55.660Z,2.50
2022-07-29T17:25:24.937Z,2.75
2022-07-29T17:27:56.397Z,2.83
2022-07-29T17:30:27.746Z,3.12
2022-07-29T17:32:55.625Z,2.10
2022-07-29T17:35:41.879Z,2.28
2022-07-29T17:38:10.301Z,2.80
2022-07-29T17:40:38.663Z,3.10
2022-07-29T17:43:09.595Z,3.70
2022-07-29T17:45:50.016Z,3.30
2022-07-29T17:48:37.328Z,2.72
2022-07-29T17:51:06.008Z,2.30
2022-07-29T17:53:37.215Z,3.10
2022-07-29T17:56:06.005Z,2.80
2022-07-29T17:58:34.601Z,2.33
2022-07-29T18:01:02.657Z,2.72
2022-07-29T18:03:31.085Z,2.22
2022-07-29T18:08:47.846Z,2.22
2022-07-29T18:11:16.222Z,2.30
2022-07-29T18:13:44.535Z,2.33
2022-07-29T18:16:12.547Z,2.62
2022-07-29T18:18:40.766Z,2.90
2022-07-29T18:21:09.037Z,3.80
2022-07-29T18:23:37.183Z,4.62
2022-07-29T18:26:05.370Z,5.45
2022-07-29T18:28:33.761Z,4.35
2022-07-29T18:31:02.985Z,4.32
2022-07-29T18:33:32.750Z,3.62
2022-07-29T18:36:06.097Z,4.00
2022-07-29T18:38:41.544Z,3.37
2022-07-29T18:41:10.108Z,4.00
2022-07-29T18:43:38.150Z,3.90
2022-07-29T18:46:07.010Z,4.18
2022-07-29T18:48:35.485Z,4.80
2022-07-29T18:51:08.979Z,5.05
2022-07-29T18:53:37.863Z,4.47
2022-07-29T18:56:05.928Z,4.22
2022-07-29T18:58:33.815Z,3.55
2022-07-29T19:01:02.637Z,3.17
2022-07-29T19:03:30.569Z,3.70
2022-07-29T19:05:58.520Z,2.50
2022-07-29T19:08:26.978Z,2.90
2022-07-29T19:10:54.958Z,3.12
2022-07-29T19:13:22.953Z,3.50
2022-07-29T19:15:51.355Z,4.10
2022-07-29T19:18:19.600Z,3.85
2022-07-29T19:20:47.637Z,4.37
2022-07-29T19:23:18.907Z,3.90
2022-07-29T19:26:05.747Z,5.78
2022-07-29T19:28:55.684Z,4.62
2022-07-29T19:31:23.867Z,4.00
2022-07-29T19:33:52.269Z,4.43
2022-07-29T19:36:20.171Z,4.00
2022-07-29T19:38:48.142Z,3.50
2022-07-29T19:41:17.427Z,4.68
2022-07-29T19:43:49.712Z,6.90
2022-07-29T19:46:24.496Z,5.97
2022-07-29T19:48:54.008Z,4.53
2022-07-29T19:51:23.786Z,5.32
2022-07-29T19:53:52.737Z,5.53
2022-07-29T19:56:20.726Z,5.00
2022-07-29T19:58:49.347Z,4.50
2022-07-29T20:01:17.393Z,4.07
2022-07-29T20:03:46.944Z,4.20
2022-07-29T20:06:14.885Z,3.70
2022-07-29T20:08:42.797Z,3.33
2022-07-29T20:11:11.335Z,2.95
2022-07-29T20:13:39.494Z,3.78
2022-07-29T20:16:08.615Z,3.30
2022-07-29T20:18:36.938Z,3.00
2022-07-29T20:21:05.008Z,3.65
2022-07-29T20:23:33.399Z,3.03
2022-07-29T20:26:03.450Z,3.72
2022-07-29T20:28:33.051Z,3.30
2022-07-29T20:31:01.410Z,2.17
2022-07-29T20:33:29.415Z,2.28
2022-07-29T20:38:42.880Z,3.33
2022-07-29T20:41:10.955Z,3.47
2022-07-29T20:43:39.127Z,3.65
2022-07-29T20:46:07.641Z,2.72
2022-07-29T20:48:35.652Z,3.30
2022-07-29T20:51:22.419Z,2.50
2022-07-29T20:53:50.819Z,1.70
2022-07-29T20:56:18.855Z,1.90
2022-07-29T20:58:46.804Z,2.20
2022-07-29T21:01:15.192Z,2.55
2022-07-29T21:03:43.250Z,2.90
2022-07-29T21:06:11.780Z,2.85
2022-07-29T21:08:40.230Z,2.33
2022-07-29T21:11:08.498Z,3.08
2022-07-29T21:13:38.771Z,2.35
2022-07-29T21:16:14.819Z,2.20
2022-07-29T21:18:47.088Z,3.10
2022-07-29T21:21:16.606Z,3.58
2022-07-29T21:23:46.202Z,3.35
2022-07-29T21:26:14.512Z,2.78
2022-07-29T21:28:43.841Z,3.50
2022-07-29T21:31:15.285Z,2.37
2022-07-29T21:33:46.164Z,2.85
2022-07-29T21:39:07.353Z,8.52
2022-07-29T21:41:35.356Z,8.98
2022-07-29T21:44:03.269Z,9.38
2022-07-29T21:46:31.641Z,7.70
2022-07-29T21:48:59.640Z,6.97
2022-07-29T21:51:27.705Z,5.68
2022-07-29T21:53:56.082Z,5.43
2022-07-29T21:56:27.459Z,6.37
2022-07-29T21:58:56.529Z,2.90
2022-07-29T22:01:24.961Z,2.55
2022-07-29T22:04:11.945Z,2.83
2022-07-29T22:06:40.164Z,3.53
2022-07-29T22:09:08.484Z,3.22
2022-07-29T22:11:37.157Z,3.72
2022-07-29T22:14:05.808Z,3.33
2022-07-29T22:16:34.419Z,3.12
2022-07-29T22:19:04.152Z,2.50
2022-07-29T22:21:32.303Z,2.95
2022-07-29T22:24:01.974Z,2.55
2022-07-29T22:26:33.050Z,2.92
2022-07-29T22:29:01.324Z,3.20
2022-07-29T22:31:29.293Z,2.30
2022-07-29T22:33:57.296Z,2.72
2022-07-29T22:36:26.514Z,2.80
2022-07-29T22:38:54.367Z,3.60
2022-07-29T22:41:22.324Z,4.37
2022-07-29T22:43:50.635Z,4.22
2022-07-29T22:46:18.600Z,4.43
2022-07-29T22:48:46.548Z,3.50
2022-07-29T22:51:14.948Z,3.67
2022-07-29T22:53:42.771Z,3.75
2022-07-29T22:56:10.634Z,3.12
2022-07-29T22:58:39.009Z,3.70
2022-07-29T23:01:06.936Z,3.42
2022-07-29T23:03:35.055Z,3.35
2022-07-29T23:06:03.525Z,3.65
2022-07-29T23:08:31.686Z,3.03
2022-07-29T23:10:59.678Z,3.10
2022-07-29T23:13:27.992Z,3.90
2022-07-29T23:15:55.884Z,3.85
2022-07-29T23:18:23.785Z,3.10
2022-07-29T23:20:52.157Z,2.30
2022-07-29T23:23:20.303Z,2.25
2022-07-29T23:25:48.167Z,2.25
2022-07-29T23:28:18.166Z,1.77
2022-07-29T23:30:46.083Z,2.40
2022-07-29T23:33:13.945Z,2.12
2022-07-29T23:35:42.241Z,2.20
2022-07-29T23:38:10.185Z,2.00
2022-07-29T23:40:38.194Z,2.37
2022-07-29T23:43:08.797Z,2.40
2022-07-29T23:45:44.556Z,2.58
2022-07-29T23:48:14.864Z,2.30
2022-07-29T23:50:42.924Z,2.83
2022-07-29T23:53:12.391Z,2.33
2022-07-29T23:55:40.696Z,2.33
2022-07-29T23:58:08.535Z,2.78
